sensor_id;sensor_type;location;lat;lon;timestamp;P1;durP1;ratioP1;P2;durP2;ratioP2
325;SDS011;150;52.352;14.058;2023-04-03T00:02:18;5.32;;;2.10;;
325;SDS011;150;52.352;14.058;2023-04-03T00:04:46;5.20;;;1.50;;
325;SDS011;150;52.352;14.058;2023-04-03T00:07:13;1.90;;;0.80;;
325;SDS011;150;52.352;14.058;2023-04-03T00:09:40;6.60;;;1.25;;
325;SDS011;150;52.352;14.058;2023-04-03T00:12:07;3.80;;;1.23;;
325;SDS011;150;52.352;14.058;2023-04-03T00:14:33;6.10;;;1.85;;
325;SDS011;150;52.352;14.058;2023-04-03T00:17:06;4.70;;;2.22;;
325;SDS011;150;52.352;14.058;2023-04-03T00:19:34;3.42;;;1.30;;
325;SDS011;150;52.352;14.058;2023-04-03T00:22:05;8.40;;;3.55;;
325;SDS011;150;52.352;14.058;2023-04-03T00:24:35;2.85;;;1.30;;
325;SDS011;150;52.352;14.058;2023-04-03T00:27:08;6.47;;;2.90;;
325;SDS011;150;52.352;14.058;2023-04-03T00:29:34;1.65;;;1.00;;
325;SDS011;150;52.352;14.058;2023-04-03T00:32:01;3.03;;;1.10;;
325;SDS011;150;52.352;14.058;2023-04-03T00:34:29;1.90;;;1.00;;
325;SDS011;150;52.352;14.058;2023-04-03T00:36:55;3.00;;;1.10;;
325;SDS011;150;52.352;14.058;2023-04-03T00:39:24;1.90;;;1.13;;
325;SDS011;150;52.352;14.058;2023-04-03T00:41:56;2.30;;;1.20;;
325;SDS011;150;52.352;14.058;2023-04-03T00:47:30;4.18;;;1.60;;
325;SDS011;150;52.352;14.058;2023-04-03T00:49:58;2.50;;;1.60;;
325;SDS011;150;52.352;14.058;2023-04-03T00:52:33;7.50;;;1.40;;
325;SDS011;150;52.352;14.058;2023-04-03T00:55:08;5.53;;;1.60;;
325;SDS011;150;52.352;14.058;2023-04-03T00:57:36;2.70;;;1.20;;
325;SDS011;150;52.352;14.058;2023-04-03T01:00:14;2.60;;;1.40;;
325;SDS011;150;52.352;14.058;2023-04-03T01:03:06;2.10;;;1.10;;
325;SDS011;150;52.352;14.058;2023-04-03T01:05:35;2.30;;;1.10;;
325;SDS011;150;52.352;14.058;2023-04-03T01:08:25;5.18;;;1.30;;
325;SDS011;150;52.352;14.058;2023-04-03T01:11:06;3.50;;;1.20;;
325;SDS011;150;52.352;14.058;2023-04-03T01:13:33;2.60;;;1.17;;
325;SDS011;150;52.352;14.058;2023-04-03T01:16:01;1.30;;;0.63;;
325;SDS011;150;52.352;14.058;2023-04-03T01:18:37;5.60;;;1.30;;
325;SDS011;150;52.352;14.058;2023-04-03T01:21:43;1.70;;;1.20;;
325;SDS011;150;52.352;14.058;2023-04-03T01:24:30;4.60;;;1.10;;
325;SDS011;150;52.352;14.058;2023-04-03T01:27:19;4.10;;;1.00;;
325;SDS011;150;52.352;14.058;2023-04-03T01:29:48;6.03;;;1.30;;
325;SDS011;150;52.352;14.058;2023-04-03T01:32:24;4.38;;;1.20;;
325;SDS011;150;52.352;14.058;2023-04-03T01:35:11;2.63;;;1.55;;
325;SDS011;150;52.352;14.058;2023-04-03T01:38:01;2.00;;;1.15;;
325;SDS011;150;52.352;14.058;2023-04-03T01:40:29;1.80;;;1.27;;
325;SDS011;150;52.352;14.058;2023-04-03T01:43:05;1.70;;;0.90;;
325;SDS011;150;52.352;14.058;2023-04-03T01:45:32;1.50;;;0.80;;
325;SDS011;150;52.352;14.058;2023-04-03T01:48:22;3.00;;;0.90;;
325;SDS011;150;52.352;14.058;2023-04-03T01:51:03;4.15;;;0.90;;
325;SDS011;150;52.352;14.058;2023-04-03T01:53:39;2.25;;;1.20;;
325;SDS011;150;52.352;14.058;2023-04-03T01:56:07;5.00;;;1.60;;
325;SDS011;150;52.352;14.058;2023-04-03T01:58:41;3.20;;;1.38;;
325;SDS011;150;52.352;14.058;2023-04-03T02:01:14;4.60;;;1.50;;
325;SDS011;150;52.352;14.058;2023-04-03T02:03:45;2.80;;;1.20;;
325;SDS011;150;52.352;14.058;2023-04-03T02:09:06;2.92;;;1.48;;
325;SDS011;150;52.352;14.058;2023-04-03T02:11:38;3.35;;;1.40;;
325;SDS011;150;52.352;14.058;2023-04-03T02:14:05;2.05;;;1.00;;
325;SDS011;150;52.352;14.058;2023-04-03T02:16:35;4.82;;;1.00;;
325;SDS011;150;52.352;14.058;2023-04-03T02:19:08;3.60;;;0.80;;
325;SDS011;150;52.352;14.058;2023-04-03T02:21:35;3.65;;;1.08;;
325;SDS011;150;52.352;14.058;2023-04-03T02:24:06;3.10;;;1.40;;
325;SDS011;150;52.352;14.058;2023-04-03T02:26:35;2.28;;;1.17;;
325;SDS011;150;52.352;14.058;2023-04-03T02:29:46;4.60;;;1.57;;
325;SDS011;150;52.352;14.058;2023-04-03T02:32:18;4.97;;;1.55;;
325;SDS011;150;52.352;14.058;2023-04-03T02:37:31;2.33;;;1.27;;
325;SDS011;150;52.352;14.058;2023-04-03T02:40:07;2.90;;;1.20;;
325;SDS011;150;52.352;14.058;2023-04-03T02:42:41;2.65;;;1.20;;
325;SDS011;150;52.352;14.058;2023-04-03T02:45:09;2.15;;;1.17;;
325;SDS011;150;52.352;14.058;2023-04-03T02:47:46;3.85;;;1.33;;
325;SDS011;150;52.352;14.058;2023-04-03T02:50:24;3.72;;;1.10;;
325;SDS011;150;52.352;14.058;2023-04-03T02:53:02;4.70;;;1.27;;
325;SDS011;150;52.352;14.058;2023-04-03T02:55:44;2.03;;;1.00;;
325;SDS011;150;52.352;14.058;2023-04-03T03:01:36;3.57;;;1.50;;
325;SDS011;150;52.352;14.058;2023-04-03T03:04:03;1.20;;;0.60;;
325;SDS011;150;52.352;14.058;2023-04-03T03:06:31;3.28;;;1.20;;
325;SDS011;150;52.352;14.058;2023-04-03T03:08:59;2.10;;;1.00;;
325;SDS011;150;52.352;14.058;2023-04-03T03:11:54;2.97;;;1.40;;
325;SDS011;150;52.352;14.058;2023-04-03T03:14:21;1.92;;;1.58;;
325;SDS011;150;52.352;14.058;2023-04-03T03:16:47;3.75;;;1.20;;
325;SDS011;150;52.352;14.058;2023-04-03T03:19:14;2.80;;;1.10;;
325;SDS011;150;52.352;14.058;2023-04-03T03:21:42;2.80;;;1.00;;
325;SDS011;150;52.352;14.058;2023-04-03T03:24:09;7.93;;;1.90;;
325;SDS011;150;52.352;14.058;2023-04-03T03:26:37;3.00;;;1.00;;
325;SDS011;150;52.352;14.058;2023-04-03T03:29:03;3.83;;;1.50;;
325;SDS011;150;52.352;14.058;2023-04-03T03:31:30;5.45;;;1.45;;
325;SDS011;150;52.352;14.058;2023-04-03T03:33:57;1.73;;;0.75;;
325;SDS011;150;52.352;14.058;2023-04-03T03:36:23;2.10;;;0.90;;
325;SDS011;150;52.352;14.058;2023-04-03T03:38:52;3.78;;;1.02;;
325;SDS011;150;52.352;14.058;2023-04-03T03:41:18;5.40;;;1.20;;
325;SDS011;150;52.352;14.058;2023-04-03T03:43:45;5.80;;;1.30;;
325;SDS011;150;52.352;14.058;2023-04-03T03:46:12;2.93;;;0.90;;
325;SDS011;150;52.352;14.058;2023-04-03T03:48:38;5.83;;;1.33;;
325;SDS011;150;52.352;14.058;2023-04-03T03:51:05;3.22;;;1.10;;
325;SDS011;150;52.352;14.058;2023-04-03T03:53:33;4.00;;;1.40;;
325;SDS011;150;52.352;14.058;2023-04-03T03:56:02;2.03;;;1.00;;
325;SDS011;150;52.352;14.058;2023-04-03T03:58:29;5.65;;;1.40;;
325;SDS011;150;52.352;14.058;2023-04-03T04:00:59;2.92;;;1.40;;
325;SDS011;150;52.352;14.058;2023-04-03T04:03:26;2.55;;;1.05;;
325;SDS011;150;52.352;14.058;2023-04-03T04:05:53;3.78;;;1.35;;
325;SDS011;150;52.352;14.058;2023-04-03T04:08:20;2.80;;;1.35;;
325;SDS011;150;52.352;14.058;2023-04-03T04:10:46;4.60;;;1.70;;
325;SDS011;150;52.352;14.058;2023-04-03T04:13:14;2.57;;;1.00;;
325;SDS011;150;52.352;14.058;2023-04-03T04:15:41;3.85;;;1.20;;
325;SDS011;150;52.352;14.058;2023-04-03T04:18:08;3.75;;;1.05;;
325;SDS011;150;52.352;14.058;2023-04-03T04:20:35;3.50;;;1.30;;
325;SDS011;150;52.352;14.058;2023-04-03T04:23:02;2.33;;;1.60;;
325;SDS011;150;52.352;14.058;2023-04-03T04:25:28;6.10;;;2.13;;
325;SDS011;150;52.352;14.058;2023-04-03T04:27:55;5.93;;;3.45;;
325;SDS011;150;52.352;14.058;2023-04-03T04:30:23;10.95;;;6.97;;
325;SDS011;150;52.352;14.058;2023-04-03T04:32:50;11.90;;;7.97;;
325;SDS011;150;52.352;14.058;2023-04-03T04:35:16;12.65;;;7.20;;
325;SDS011;150;52.352;14.058;2023-04-03T04:37:43;10.23;;;7.15;;
325;SDS011;150;52.352;14.058;2023-04-03T04:40:10;9.40;;;5.28;;
325;SDS011;150;52.352;14.058;2023-04-03T04:42:37;10.75;;;4.47;;
325;SDS011;150;52.352;14.058;2023-04-03T04:45:04;8.55;;;3.10;;
325;SDS011;150;52.352;14.058;2023-04-03T04:47:33;4.45;;;2.17;;
325;SDS011;150;52.352;14.058;2023-04-03T04:50:00;6.38;;;2.00;;
325;SDS011;150;52.352;14.058;2023-04-03T04:52:27;4.50;;;1.60;;
325;SDS011;150;52.352;14.058;2023-04-03T04:54:53;3.03;;;1.30;;
325;SDS011;150;52.352;14.058;2023-04-03T04:57:22;2.08;;;1.17;;
325;SDS011;150;52.352;14.058;2023-04-03T04:59:49;4.95;;;1.80;;
325;SDS011;150;52.352;14.058;2023-04-03T05:02:15;2.60;;;1.40;;
325;SDS011;150;52.352;14.058;2023-04-03T05:04:43;1.85;;;1.30;;
325;SDS011;150;52.352;14.058;2023-04-03T05:07:10;3.87;;;1.77;;
325;SDS011;150;52.352;14.058;2023-04-03T05:09:37;4.05;;;1.30;;
325;SDS011;150;52.352;14.058;2023-04-03T05:12:03;7.50;;;1.40;;
325;SDS011;150;52.352;14.058;2023-04-03T05:14:30;3.60;;;1.20;;
325;SDS011;150;52.352;14.058;2023-04-03T05:16:57;2.70;;;1.10;;
325;SDS011;150;52.352;14.058;2023-04-03T05:19:23;1.40;;;0.70;;
325;SDS011;150;52.352;14.058;2023-04-03T05:21:51;2.10;;;1.27;;
325;SDS011;150;52.352;14.058;2023-04-03T05:24:18;4.80;;;1.50;;
325;SDS011;150;52.352;14.058;2023-04-03T05:26:45;2.63;;;0.88;;
325;SDS011;150;52.352;14.058;2023-04-03T05:29:11;5.90;;;1.50;;
325;SDS011;150;52.352;14.058;2023-04-03T05:31:38;2.53;;;1.00;;
325;SDS011;150;52.352;14.058;2023-04-03T05:34:05;1.20;;;0.90;;
325;SDS011;150;52.352;14.058;2023-04-03T05:36:32;3.60;;;1.30;;
325;SDS011;150;52.352;14.058;2023-04-03T05:39:00;2.17;;;1.00;;
325;SDS011;150;52.352;14.058;2023-04-03T05:41:26;2.00;;;0.90;;
325;SDS011;150;52.352;14.058;2023-04-03T05:43:53;5.90;;;0.90;;
325;SDS011;150;52.352;14.058;2023-04-03T05:46:20;3.70;;;1.50;;
325;SDS011;150;52.352;14.058;2023-04-03T05:48:47;2.40;;;0.90;;
325;SDS011;150;52.352;14.058;2023-04-03T05:51:14;4.70;;;1.60;;
325;SDS011;150;52.352;14.058;2023-04-03T05:53:45;2.10;;;1.40;;
325;SDS011;150;52.352;14.058;2023-04-03T05:56:14;2.40;;;1.30;;
325;SDS011;150;52.352;14.058;2023-04-03T05:58:41;3.50;;;1.20;;
325;SDS011;150;52.352;14.058;2023-04-03T06:01:08;6.53;;;1.60;;
325;SDS011;150;52.352;14.058;2023-04-03T06:03:34;7.05;;;1.15;;
325;SDS011;150;52.352;14.058;2023-04-03T06:06:02;2.25;;;1.30;;
325;SDS011;150;52.352;14.058;2023-04-03T06:08:30;3.75;;;1.30;;
325;SDS011;150;52.352;14.058;2023-04-03T06:10:57;3.55;;;1.10;;
325;SDS011;150;52.352;14.058;2023-04-03T06:13:25;4.60;;;1.55;;
325;SDS011;150;52.352;14.058;2023-04-03T06:15:52;4.47;;;1.40;;
325;SDS011;150;52.352;14.058;2023-04-03T06:18:19;2.30;;;1.30;;
325;SDS011;150;52.352;14.058;2023-04-03T06:20:46;3.25;;;1.45;;
325;SDS011;150;52.352;14.058;2023-04-03T06:23:14;5.57;;;1.10;;
325;SDS011;150;52.352;14.058;2023-04-03T06:25:41;5.47;;;1.10;;
325;SDS011;150;52.352;14.058;2023-04-03T06:28:08;4.10;;;1.65;;
325;SDS011;150;52.352;14.058;2023-04-03T06:30:36;1.65;;;0.98;;
325;SDS011;150;52.352;14.058;2023-04-03T06:33:03;2.70;;;1.00;;
325;SDS011;150;52.352;14.058;2023-04-03T06:35:30;2.00;;;0.90;;
325;SDS011;150;52.352;14.058;2023-04-03T06:37:56;2.07;;;0.77;;
325;SDS011;150;52.352;14.058;2023-04-03T06:40:24;1.50;;;1.00;;
325;SDS011;150;52.352;14.058;2023-04-03T06:42:52;3.00;;;1.00;;
325;SDS011;150;52.352;14.058;2023-04-03T06:45:18;3.80;;;1.23;;
325;SDS011;150;52.352;14.058;2023-04-03T06:47:47;3.70;;;1.38;;
325;SDS011;150;52.352;14.058;2023-04-03T06:50:14;4.60;;;1.00;;
325;SDS011;150;52.352;14.058;2023-04-03T06:52:41;2.40;;;0.82;;
325;SDS011;150;52.352;14.058;2023-04-03T06:55:08;5.07;;;3.00;;
325;SDS011;150;52.352;14.058;2023-04-03T06:57:36;2.40;;;0.70;;
325;SDS011;150;52.352;14.058;2023-04-03T07:00:03;3.15;;;1.10;;
325;SDS011;150;52.352;14.058;2023-04-03T07:02:31;3.95;;;1.00;;
325;SDS011;150;52.352;14.058;2023-04-03T07:05:00;2.40;;;0.90;;
325;SDS011;150;52.352;14.058;2023-04-03T07:07:26;2.00;;;0.90;;
325;SDS011;150;52.352;14.058;2023-04-03T07:09:56;4.63;;;1.42;;
325;SDS011;150;52.352;14.058;2023-04-03T07:12:22;2.65;;;0.90;;
325;SDS011;150;52.352;14.058;2023-04-03T07:14:49;1.73;;;0.82;;
325;SDS011;150;52.352;14.058;2023-04-03T07:17:16;1.60;;;0.80;;
325;SDS011;150;52.352;14.058;2023-04-03T07:19:42;3.60;;;0.80;;
325;SDS011;150;52.352;14.058;2023-04-03T07:22:11;3.73;;;0.90;;
325;SDS011;150;52.352;14.058;2023-04-03T07:24:38;1.80;;;0.80;;
325;SDS011;150;52.352;14.058;2023-04-03T07:27:04;2.40;;;1.33;;
325;SDS011;150;52.352;14.058;2023-04-03T07:29:33;2.40;;;0.88;;
325;SDS011;150;52.352;14.058;2023-04-03T07:32:00;3.25;;;0.77;;
325;SDS011;150;52.352;14.058;2023-04-03T07:34:27;2.72;;;1.00;;
325;SDS011;150;52.352;14.058;2023-04-03T07:36:53;3.78;;;1.10;;
325;SDS011;150;52.352;14.058;2023-04-03T07:39:21;2.58;;;0.90;;
325;SDS011;150;52.352;14.058;2023-04-03T07:41:50;2.10;;;1.00;;
325;SDS011;150;52.352;14.058;2023-04-03T07:44:17;1.80;;;0.70;;
325;SDS011;150;52.352;14.058;2023-04-03T07:46:43;2.17;;;0.88;;
325;SDS011;150;52.352;14.058;2023-04-03T07:49:13;4.20;;;1.40;;
325;SDS011;150;52.352;14.058;2023-04-03T07:51:40;3.22;;;1.35;;
325;SDS011;150;52.352;14.058;2023-04-03T07:54:07;2.05;;;1.20;;
325;SDS011;150;52.352;14.058;2023-04-03T07:56:35;2.53;;;1.17;;
325;SDS011;150;52.352;14.058;2023-04-03T07:59:01;1.40;;;0.80;;
325;SDS011;150;52.352;14.058;2023-04-03T08:01:28;2.50;;;1.10;;
325;SDS011;150;52.352;14.058;2023-04-03T08:03:57;1.70;;;0.60;;
325;SDS011;150;52.352;14.058;2023-04-03T08:06:24;2.60;;;1.00;;
325;SDS011;150;52.352;14.058;2023-04-03T08:08:51;3.55;;;1.33;;
325;SDS011;150;52.352;14.058;2023-04-03T08:11:21;1.38;;;0.88;;
325;SDS011;150;52.352;14.058;2023-04-03T08:13:50;2.50;;;0.90;;
325;SDS011;150;52.352;14.058;2023-04-03T08:16:17;3.40;;;1.15;;
325;SDS011;150;52.352;14.058;2023-04-03T08:18:46;1.52;;;0.80;;
325;SDS011;150;52.352;14.058;2023-04-03T08:21:13;1.77;;;0.90;;
325;SDS011;150;52.352;14.058;2023-04-03T08:23:40;2.40;;;1.38;;
325;SDS011;150;52.352;14.058;2023-04-03T08:26:08;4.22;;;1.00;;
325;SDS011;150;52.352;14.058;2023-04-03T08:28:36;1.40;;;0.60;;
325;SDS011;150;52.352;14.058;2023-04-03T08:31:05;2.57;;;0.87;;
325;SDS011;150;52.352;14.058;2023-04-03T08:33:36;2.00;;;1.10;;
325;SDS011;150;52.352;14.058;2023-04-03T08:36:03;5.00;;;1.00;;
325;SDS011;150;52.352;14.058;2023-04-03T08:38:31;1.70;;;0.70;;
325;SDS011;150;52.352;14.058;2023-04-03T08:41:05;4.70;;;0.75;;
325;SDS011;150;52.352;14.058;2023-04-03T08:43:42;2.10;;;0.60;;
325;SDS011;150;52.352;14.058;2023-04-03T08:46:22;1.80;;;0.80;;
325;SDS011;150;52.352;14.058;2023-04-03T08:48:54;3.00;;;1.30;;
325;SDS011;150;52.352;14.058;2023-04-03T08:51:26;1.60;;;0.70;;
325;SDS011;150;52.352;14.058;2023-04-03T08:53:54;1.60;;;0.70;;
325;SDS011;150;52.352;14.058;2023-04-03T08:56:24;1.80;;;0.60;;
325;SDS011;150;52.352;14.058;2023-04-03T08:58:52;2.00;;;0.90;;
325;SDS011;150;52.352;14.058;2023-04-03T09:01:25;1.20;;;0.60;;
325;SDS011;150;52.352;14.058;2023-04-03T09:03:56;2.10;;;0.70;;
325;SDS011;150;52.352;14.058;2023-04-03T09:06:23;1.90;;;0.70;;
325;SDS011;150;52.352;14.058;2023-04-03T09:09:04;2.00;;;1.10;;
325;SDS011;150;52.352;14.058;2023-04-03T09:11:41;2.05;;;1.00;;
325;SDS011;150;52.352;14.058;2023-04-03T09:14:19;2.10;;;0.70;;
325;SDS011;150;52.352;14.058;2023-04-03T09:16:54;1.73;;;0.80;;
325;SDS011;150;52.352;14.058;2023-04-03T09:19:23;2.08;;;0.90;;
325;SDS011;150;52.352;14.058;2023-04-03T09:21:58;2.00;;;1.02;;
325;SDS011;150;52.352;14.058;2023-04-03T09:24:28;2.00;;;1.00;;
325;SDS011;150;52.352;14.058;2023-04-03T09:26:58;1.10;;;0.60;;
325;SDS011;150;52.352;14.058;2023-04-03T09:29:27;1.20;;;0.70;;
325;SDS011;150;52.352;14.058;2023-04-03T09:31:56;1.37;;;0.57;;
325;SDS011;150;52.352;14.058;2023-04-03T09:34:27;1.50;;;0.70;;
325;SDS011;150;52.352;14.058;2023-04-03T09:36:56;1.70;;;0.90;;
325;SDS011;150;52.352;14.058;2023-04-03T09:39:25;1.27;;;0.85;;
325;SDS011;150;52.352;14.058;2023-04-03T09:41:57;3.15;;;1.50;;
325;SDS011;150;52.352;14.058;2023-04-03T09:44:26;2.90;;;1.00;;
325;SDS011;150;52.352;14.058;2023-04-03T09:46:57;1.70;;;1.20;;
325;SDS011;150;52.352;14.058;2023-04-03T09:49:24;4.07;;;0.90;;
325;SDS011;150;52.352;14.058;2023-04-03T09:51:51;1.60;;;0.88;;
325;SDS011;150;52.352;14.058;2023-04-03T09:57:07;1.25;;;0.60;;
325;SDS011;150;52.352;14.058;2023-04-03T09:59:37;1.70;;;0.80;;
325;SDS011;150;52.352;14.058;2023-04-03T10:02:20;1.00;;;0.50;;
325;SDS011;150;52.352;14.058;2023-04-03T10:04:59;2.20;;;1.30;;
325;SDS011;150;52.352;14.058;2023-04-03T10:07:28;1.00;;;0.50;;
325;SDS011;150;52.352;14.058;2023-04-03T10:09:57;6.00;;;3.70;;
325;SDS011;150;52.352;14.058;2023-04-03T10:12:26;2.20;;;0.90;;
325;SDS011;150;52.352;14.058;2023-04-03T10:14:54;1.38;;;0.90;;
325;SDS011;150;52.352;14.058;2023-04-03T10:17:25;2.97;;;0.90;;
325;SDS011;150;52.352;14.058;2023-04-03T10:20:00;2.63;;;0.80;;
325;SDS011;150;52.352;14.058;2023-04-03T10:22:36;4.90;;;0.90;;
325;SDS011;150;52.352;14.058;2023-04-03T10:25:10;1.98;;;0.90;;
325;SDS011;150;52.352;14.058;2023-04-03T10:27:46;1.20;;;0.50;;
325;SDS011;150;52.352;14.058;2023-04-03T10:30:27;1.67;;;1.02;;
325;SDS011;150;52.352;14.058;2023-04-03T10:33:17;1.97;;;0.83;;
325;SDS011;150;52.352;14.058;2023-04-03T10:35:50;1.40;;;0.70;;
325;SDS011;150;52.352;14.058;2023-04-03T10:38:25;1.20;;;0.70;;
325;SDS011;150;52.352;14.058;2023-04-03T10:41:02;2.10;;;0.63;;
325;SDS011;150;52.352;14.058;2023-04-03T10:43:36;2.40;;;1.00;;
325;SDS011;150;52.352;14.058;2023-04-03T10:46:11;3.83;;;0.70;;
325;SDS011;150;52.352;14.058;2023-04-03T10:48:49;2.50;;;0.60;;
325;SDS011;150;52.352;14.058;2023-04-03T10:51:25;3.17;;;0.70;;
325;SDS011;150;52.352;14.058;2023-04-03T10:53:59;1.10;;;0.70;;
325;SDS011;150;52.352;14.058;2023-04-03T10:56:32;1.98;;;0.90;;
325;SDS011;150;52.352;14.058;2023-04-03T10:59:07;4.80;;;3.97;;
325;SDS011;150;52.352;14.058;2023-04-03T11:01:45;5.18;;;1.65;;
325;SDS011;150;52.352;14.058;2023-04-03T11:04:18;3.20;;;1.30;;
325;SDS011;150;52.352;14.058;2023-04-03T11:06:47;5.20;;;1.20;;
325;SDS011;150;52.352;14.058;2023-04-03T11:09:19;1.80;;;1.05;;
325;SDS011;150;52.352;14.058;2023-04-03T11:11:50;2.15;;;1.05;;
325;SDS011;150;52.352;14.058;2023-04-03T11:14:22;1.60;;;0.70;;
325;SDS011;150;52.352;14.058;2023-04-03T11:16:55;1.58;;;0.90;;
325;SDS011;150;52.352;14.058;2023-04-03T11:19:33;2.45;;;1.10;;
325;SDS011;150;52.352;14.058;2023-04-03T11:22:05;5.30;;;2.33;;
325;SDS011;150;52.352;14.058;2023-04-03T11:24:38;1.60;;;0.90;;
325;SDS011;150;52.352;14.058;2023-04-03T11:27:08;3.40;;;1.17;;
325;SDS011;150;52.352;14.058;2023-04-03T11:29:43;3.50;;;1.85;;
325;SDS011;150;52.352;14.058;2023-04-03T11:32:17;4.07;;;1.90;;
325;SDS011;150;52.352;14.058;2023-04-03T11:35:05;2.50;;;1.10;;
325;SDS011;150;52.352;14.058;2023-04-03T11:37:34;1.33;;;0.70;;
325;SDS011;150;52.352;14.058;2023-04-03T11:40:04;3.08;;;1.50;;
325;SDS011;150;52.352;14.058;2023-04-03T11:42:34;6.20;;;3.10;;
325;SDS011;150;52.352;14.058;2023-04-03T11:45:16;2.30;;;0.90;;
325;SDS011;150;52.352;14.058;2023-04-03T11:47:58;2.10;;;1.08;;
325;SDS011;150;52.352;14.058;2023-04-03T11:50:40;2.90;;;1.33;;
325;SDS011;150;52.352;14.058;2023-04-03T11:55:59;3.50;;;0.85;;
325;SDS011;150;52.352;14.058;2023-04-03T11:58:30;1.55;;;0.60;;
325;SDS011;150;52.352;14.058;2023-04-03T12:01:00;5.13;;;0.98;;
325;SDS011;150;52.352;14.058;2023-04-03T12:03:35;2.00;;;0.87;;
325;SDS011;150;52.352;14.058;2023-04-03T12:09:26;4.18;;;1.17;;
325;SDS011;150;52.352;14.058;2023-04-03T12:11:56;1.50;;;1.00;;
325;SDS011;150;52.352;14.058;2023-04-03T12:14:25;1.50;;;0.90;;
325;SDS011;150;52.352;14.058;2023-04-03T12:16:54;1.35;;;0.80;;
325;SDS011;150;52.352;14.058;2023-04-03T12:19:31;2.63;;;1.33;;
325;SDS011;150;52.352;14.058;2023-04-03T12:22:08;3.47;;;1.40;;
325;SDS011;150;52.352;14.058;2023-04-03T12:24:37;3.30;;;1.00;;
325;SDS011;150;52.352;14.058;2023-04-03T12:29:53;2.55;;;1.60;;
325;SDS011;150;52.352;14.058;2023-04-03T12:32:48;4.35;;;1.20;;
325;SDS011;150;52.352;14.058;2023-04-03T12:35:26;4.07;;;1.10;;
325;SDS011;150;52.352;14.058;2023-04-03T12:38:11;3.30;;;1.00;;
325;SDS011;150;52.352;14.058;2023-04-03T12:41:02;2.80;;;1.25;;
325;SDS011;150;52.352;14.058;2023-04-03T12:43:43;2.30;;;1.10;;
325;SDS011;150;52.352;14.058;2023-04-03T12:46:21;2.07;;;0.93;;
325;SDS011;150;52.352;14.058;2023-04-03T12:48:52;1.70;;;0.80;;
325;SDS011;150;52.352;14.058;2023-04-03T12:51:24;2.55;;;1.08;;
325;SDS011;150;52.352;14.058;2023-04-03T12:54:00;2.55;;;1.30;;
325;SDS011;150;52.352;14.058;2023-04-03T12:56:30;1.98;;;1.00;;
325;SDS011;150;52.352;14.058;2023-04-03T12:59:13;4.47;;;1.85;;
325;SDS011;150;52.352;14.058;2023-04-03T13:01:41;4.30;;;2.55;;
325;SDS011;150;52.352;14.058;2023-04-03T13:04:09;6.20;;;3.22;;
325;SDS011;150;52.352;14.058;2023-04-03T13:06:39;5.10;;;3.05;;
325;SDS011;150;52.352;14.058;2023-04-03T13:09:17;2.10;;;1.10;;
325;SDS011;150;52.352;14.058;2023-04-03T13:11:46;4.88;;;0.80;;
325;SDS011;150;52.352;14.058;2023-04-03T13:14:16;3.20;;;1.08;;
325;SDS011;150;52.352;14.058;2023-04-03T13:16:52;2.75;;;1.25;;
325;SDS011;150;52.352;14.058;2023-04-03T13:19:19;2.20;;;1.10;;
325;SDS011;150;52.352;14.058;2023-04-03T13:21:47;6.65;;;1.50;;
325;SDS011;150;52.352;14.058;2023-04-03T13:24:16;3.70;;;1.20;;
325;SDS011;150;52.352;14.058;2023-04-03T13:26:43;1.50;;;0.70;;
325;SDS011;150;52.352;14.058;2023-04-03T13:29:18;2.53;;;1.00;;
325;SDS011;150;52.352;14.058;2023-04-03T13:31:51;2.15;;;0.80;;
325;SDS011;150;52.352;14.058;2023-04-03T13:34:20;3.33;;;1.60;;
325;SDS011;150;52.352;14.058;2023-04-03T13:36:56;6.50;;;2.97;;
325;SDS011;150;52.352;14.058;2023-04-03T13:39:25;2.30;;;1.20;;
325;SDS011;150;52.352;14.058;2023-04-03T13:42:01;2.30;;;1.10;;
325;SDS011;150;52.352;14.058;2023-04-03T13:44:43;9.55;;;5.47;;
325;SDS011;150;52.352;14.058;2023-04-03T13:47:17;1.85;;;1.05;;
325;SDS011;150;52.352;14.058;2023-04-03T13:49:59;2.40;;;1.10;;
325;SDS011;150;52.352;14.058;2023-04-03T13:52:31;3.20;;;1.10;;
325;SDS011;150;52.352;14.058;2023-04-03T13:55:15;3.20;;;1.30;;
325;SDS011;150;52.352;14.058;2023-04-03T13:57:51;2.85;;;1.70;;
325;SDS011;150;52.352;14.058;2023-04-03T14:00:30;2.00;;;1.10;;
325;SDS011;150;52.352;14.058;2023-04-03T14:03:13;3.20;;;1.10;;
325;SDS011;150;52.352;14.058;2023-04-03T14:05:44;1.90;;;1.07;;
325;SDS011;150;52.352;14.058;2023-04-03T14:08:13;1.77;;;0.90;;
325;SDS011;150;52.352;14.058;2023-04-03T14:10:48;2.50;;;1.60;;
325;SDS011;150;52.352;14.058;2023-04-03T14:13:17;3.13;;;1.65;;
325;SDS011;150;52.352;14.058;2023-04-03T14:15:46;7.00;;;4.63;;
325;SDS011;150;52.352;14.058;2023-04-03T14:18:17;3.30;;;1.20;;
325;SDS011;150;52.352;14.058;2023-04-03T14:20:45;2.20;;;1.40;;
325;SDS011;150;52.352;14.058;2023-04-03T14:23:14;2.22;;;1.15;;
325;SDS011;150;52.352;14.058;2023-04-03T14:25:49;2.50;;;1.10;;
325;SDS011;150;52.352;14.058;2023-04-03T14:28:17;4.00;;;1.00;;
325;SDS011;150;52.352;14.058;2023-04-03T14:30:45;2.78;;;1.45;;
325;SDS011;150;52.352;14.058;2023-04-03T14:33:15;4.18;;;2.10;;
325;SDS011;150;52.352;14.058;2023-04-03T14:35:44;2.20;;;1.38;;
325;SDS011;150;52.352;14.058;2023-04-03T14:38:12;3.75;;;1.25;;
325;SDS011;150;52.352;14.058;2023-04-03T14:40:50;1.70;;;1.20;;
325;SDS011;150;52.352;14.058;2023-04-03T14:43:17;2.38;;;1.00;;
325;SDS011;150;52.352;14.058;2023-04-03T14:45:45;3.00;;;1.50;;
325;SDS011;150;52.352;14.058;2023-04-03T14:48:12;2.30;;;1.80;;
325;SDS011;150;52.352;14.058;2023-04-03T14:50:44;6.80;;;5.03;;
325;SDS011;150;52.352;14.058;2023-04-03T14:53:11;2.20;;;1.80;;
325;SDS011;150;52.352;14.058;2023-04-03T14:55:41;3.70;;;1.60;;
325;SDS011;150;52.352;14.058;2023-04-03T14:58:11;3.20;;;1.60;;
325;SDS011;150;52.352;14.058;2023-04-03T15:00:39;4.80;;;1.50;;
325;SDS011;150;52.352;14.058;2023-04-03T15:03:08;2.45;;;1.30;;
325;SDS011;150;52.352;14.058;2023-04-03T15:05:39;3.28;;;2.88;;
325;SDS011;150;52.352;14.058;2023-04-03T15:08:08;1.95;;;1.48;;
325;SDS011;150;52.352;14.058;2023-04-03T15:10:46;1.83;;;1.33;;
325;SDS011;150;52.352;14.058;2023-04-03T15:13:14;4.03;;;1.80;;
325;SDS011;150;52.352;14.058;2023-04-03T15:15:42;2.87;;;1.20;;
325;SDS011;150;52.352;14.058;2023-04-03T15:18:16;4.55;;;1.25;;
325;SDS011;150;52.352;14.058;2023-04-03T15:20:44;2.17;;;1.17;;
325;SDS011;150;52.352;14.058;2023-04-03T15:23:13;5.72;;;2.80;;
325;SDS011;150;52.352;14.058;2023-04-03T15:25:41;5.25;;;3.25;;
325;SDS011;150;52.352;14.058;2023-04-03T15:28:10;4.40;;;2.10;;
325;SDS011;150;52.352;14.058;2023-04-03T15:30:43;4.68;;;1.83;;
325;SDS011;150;52.352;14.058;2023-04-03T15:33:10;4.45;;;2.72;;
325;SDS011;150;52.352;14.058;2023-04-03T15:35:37;2.60;;;1.80;;
325;SDS011;150;52.352;14.058;2023-04-03T15:38:03;7.18;;;4.35;;
325;SDS011;150;52.352;14.058;2023-04-03T15:40:30;8.35;;;5.88;;
325;SDS011;150;52.352;14.058;2023-04-03T15:42:57;7.72;;;4.65;;
325;SDS011;150;52.352;14.058;2023-04-03T15:45:25;3.70;;;3.35;;
325;SDS011;150;52.352;14.058;2023-04-03T15:47:55;6.55;;;3.75;;
325;SDS011;150;52.352;14.058;2023-04-03T15:50:22;2.22;;;1.20;;
325;SDS011;150;52.352;14.058;2023-04-03T15:52:49;3.57;;;1.30;;
325;SDS011;150;52.352;14.058;2023-04-03T15:55:19;3.05;;;1.33;;
325;SDS011;150;52.352;14.058;2023-04-03T15:57:46;2.75;;;1.40;;
325;SDS011;150;52.352;14.058;2023-04-03T16:00:13;3.78;;;1.35;;
325;SDS011;150;52.352;14.058;2023-04-03T16:02:41;3.80;;;1.00;;
325;SDS011;150;52.352;14.058;2023-04-03T16:05:09;3.60;;;1.60;;
325;SDS011;150;52.352;14.058;2023-04-03T16:07:37;3.00;;;0.90;;
325;SDS011;150;52.352;14.058;2023-04-03T16:10:05;5.77;;;1.33;;
325;SDS011;150;52.352;14.058;2023-04-03T16:12:32;2.47;;;1.38;;
325;SDS011;150;52.352;14.058;2023-04-03T16:15:00;1.50;;;1.10;;
325;SDS011;150;52.352;14.058;2023-04-03T16:17:26;2.08;;;1.35;;